createdAt,value
2016-07-31T00:00:36.957Z,18.14
2016-07-31T00:01:36.975Z,18.08
2016-07-31T00:02:37.008Z,17.95
2016-07-31T00:03:37.029Z,17.93
2016-07-31T00:04:37.057Z,17.9
2016-07-31T00:05:37.087Z,17.86
2016-07-31T00:06:37.110Z,17.77
2016-07-31T00:07:37.139Z,17.72
2016-07-31T00:08:37.172Z,17.78
2016-07-31T00:09:52.119Z,17.66
2016-07-31T00:10:52.143Z,17.63
2016-07-31T00:11:37.241Z,17.68
2016-07-31T00:12:37.279Z,17.68
2016-07-31T00:13:37.303Z,17.56
2016-07-31T00:14:37.327Z,17.64
2016-07-31T00:15:37.358Z,17.63
2016-07-31T00:16:37.383Z,17.74
2016-07-31T00:17:37.406Z,17.7
2016-07-31T00:18:37.440Z,17.81
2016-07-31T00:19:37.463Z,17.77
2016-07-31T00:20:37.489Z,17.77
2016-07-31T00:21:37.519Z,17.82
2016-07-31T00:22:37.541Z,17.89
2016-07-31T00:23:37.571Z,17.79
2016-07-31T00:24:37.594Z,17.72
2016-07-31T00:25:52.542Z,17.63
2016-07-31T00:26:37.697Z,17.58
2016-07-31T00:27:37.673Z,17.58
2016-07-31T00:28:37.704Z,17.44
2016-07-31T00:30:37.752Z,17.48
2016-07-31T00:31:37.779Z,17.52
2016-07-31T00:32:37.807Z,17.48
2016-07-31T00:33:37.837Z,17.58
2016-07-31T00:34:37.858Z,17.56
2016-07-31T00:35:37.886Z,17.58
2016-07-31T00:36:37.911Z,17.58
2016-07-31T00:37:37.938Z,17.58
2016-07-31T00:39:37.990Z,17.56
2016-07-31T00:40:38.017Z,17.64
2016-07-31T00:41:52.969Z,17.71
2016-07-31T00:42:38.076Z,17.63
2016-07-31T00:43:38.103Z,17.56
2016-07-31T00:44:38.132Z,17.64
2016-07-31T00:45:38.160Z,17.71
2016-07-31T00:46:38.179Z,17.66
2016-07-31T00:47:38.206Z,17.7
2016-07-31T00:48:38.228Z,17.63
2016-07-31T00:49:38.312Z,17.71
2016-07-31T00:50:38.289Z,17.71
2016-07-31T00:51:38.316Z,17.82
2016-07-31T00:52:38.443Z,17.92
2016-07-31T00:54:38.390Z,17.87
2016-07-31T00:55:38.416Z,17.78
2016-07-31T00:56:38.448Z,17.77
2016-07-31T00:58:38.497Z,17.82
2016-07-31T00:59:38.527Z,17.75
2016-07-31T01:00:38.552Z,17.82
2016-07-31T01:01:38.579Z,17.7
2016-07-31T01:02:38.600Z,17.68
2016-07-31T01:03:38.642Z,17.62
2016-07-31T01:04:38.667Z,17.64
2016-07-31T01:05:38.682Z,17.55
2016-07-31T01:06:38.712Z,17.55
2016-07-31T01:07:38.734Z,17.56
2016-07-31T01:08:38.761Z,17.68
2016-07-31T01:09:38.784Z,17.68
2016-07-31T01:10:38.822Z,17.71
2016-07-31T01:11:53.770Z,17.74
2016-07-31T01:13:53.819Z,17.74
2016-07-31T01:14:38.925Z,17.81
2016-07-31T01:15:38.950Z,17.79
2016-07-31T01:16:38.981Z,17.87
2016-07-31T01:17:38.999Z,17.86
2016-07-31T01:18:39.035Z,17.74
2016-07-31T01:19:39.056Z,17.68
2016-07-31T01:20:39.081Z,17.54
2016-07-31T01:21:39.107Z,17.52
2016-07-31T01:22:39.134Z,17.44
2016-07-31T01:23:39.163Z,17.38
2016-07-31T01:24:39.190Z,17.41
2016-07-31T01:25:39.212Z,17.25
2016-07-31T01:26:39.236Z,17.43
2016-07-31T01:27:39.269Z,17.44
2016-07-31T01:28:54.213Z,17.41
2016-07-31T01:29:39.326Z,17.41
2016-07-31T01:30:39.399Z,17.43
2016-07-31T01:31:39.378Z,17.51
2016-07-31T01:32:39.402Z,17.41
2016-07-31T01:33:39.424Z,17.33
2016-07-31T01:34:39.449Z,17.23
2016-07-31T01:35:39.481Z,17.18
2016-07-31T01:36:39.519Z,17.22
2016-07-31T01:37:39.529Z,17.25
2016-07-31T01:38:39.569Z,17.22
2016-07-31T01:39:39.590Z,17.21
2016-07-31T01:40:39.610Z,17.21
2016-07-31T01:41:39.647Z,17.18
2016-07-31T01:43:39.696Z,17.18
2016-07-31T01:44:54.687Z,17.12
2016-07-31T01:45:39.745Z,17.16
2016-07-31T01:46:39.768Z,17.08
2016-07-31T01:47:39.795Z,17.14
2016-07-31T01:48:39.824Z,17.08
2016-07-31T01:49:39.847Z,17.12
2016-07-31T01:50:39.871Z,17.11
2016-07-31T01:51:39.900Z,16.96
2016-07-31T01:52:39.924Z,16.86
2016-07-31T01:53:39.959Z,16.81
2016-07-31T01:54:39.979Z,16.81
2016-07-31T01:55:40.006Z,16.78
2016-07-31T01:57:40.057Z,16.78
2016-07-31T01:58:40.083Z,16.78
2016-07-31T01:59:40.807Z,16.67
2016-07-31T02:00:55.058Z,16.7
2016-07-31T02:01:40.164Z,16.63
2016-07-31T02:02:40.196Z,16.66
2016-07-31T02:03:40.219Z,16.67
2016-07-31T02:04:40.260Z,16.64
2016-07-31T02:05:40.273Z,16.7
2016-07-31T02:06:40.301Z,16.75
2016-07-31T02:07:40.319Z,16.75
2016-07-31T02:08:40.351Z,16.88
2016-07-31T02:09:40.383Z,16.83
2016-07-31T02:10:40.406Z,16.78
2016-07-31T02:11:40.433Z,16.78
2016-07-31T02:12:40.452Z,16.64
2016-07-31T02:14:40.500Z,16.67
2016-07-31T02:15:40.532Z,16.61
2016-07-31T02:16:55.484Z,16.58
2016-07-31T02:18:55.530Z,16.46
2016-07-31T02:19:40.634Z,16.57
2016-07-31T02:20:40.664Z,16.56
2016-07-31T02:21:40.694Z,16.52
2016-07-31T02:22:40.711Z,16.52
2016-07-31T02:23:40.741Z,16.57
2016-07-31T02:24:40.767Z,16.52
2016-07-31T02:25:40.790Z,16.56
2016-07-31T02:26:40.819Z,16.56
2016-07-31T02:27:40.843Z,16.52
2016-07-31T02:28:40.870Z,16.66
2016-07-31T02:29:40.893Z,16.63
2016-07-31T02:31:40.947Z,16.56
2016-07-31T02:32:55.899Z,16.48
2016-07-31T02:33:41.002Z,16.5
2016-07-31T02:34:41.029Z,16.41
2016-07-31T02:35:41.063Z,16.45
2016-07-31T02:36:41.083Z,16.42
2016-07-31T02:37:41.102Z,16.34
2016-07-31T02:38:41.131Z,16.46
2016-07-31T02:39:41.156Z,16.38
2016-07-31T02:40:41.190Z,16.48
2016-07-31T02:41:41.208Z,16.45
2016-07-31T02:42:41.236Z,16.42
2016-07-31T02:43:41.258Z,16.49
2016-07-31T02:44:41.295Z,16.49
2016-07-31T02:46:41.341Z,16.38
2016-07-31T02:47:41.371Z,16.33
2016-07-31T02:48:56.320Z,16.38
2016-07-31T02:49:41.421Z,16.33
2016-07-31T02:50:41.447Z,16.45
2016-07-31T02:51:41.473Z,16.31
2016-07-31T02:52:41.506Z,16.45
2016-07-31T02:53:41.521Z,16.33
2016-07-31T02:54:41.607Z,16.38
2016-07-31T02:55:41.631Z,16.42
2016-07-31T02:56:41.618Z,16.33
2016-07-31T02:57:41.638Z,16.31
2016-07-31T02:58:41.649Z,16.46
2016-07-31T02:59:41.681Z,16.3
2016-07-31T03:00:41.712Z,16.35
2016-07-31T03:01:41.729Z,16.33
2016-07-31T03:02:41.758Z,16.45
2016-07-31T03:03:56.708Z,16.39
2016-07-31T03:04:41.807Z,16.35
2016-07-31T03:05:41.840Z,16.45
2016-07-31T03:06:41.865Z,16.39
2016-07-31T03:07:41.892Z,16.42
2016-07-31T03:08:41.918Z,16.52
2016-07-31T03:09:41.948Z,16.46
2016-07-31T03:10:41.976Z,16.48
2016-07-31T03:11:41.992Z,16.57
2016-07-31T03:13:42.049Z,16.53
2016-07-31T03:14:42.069Z,16.5
2016-07-31T03:15:57.024Z,16.5
2016-07-31T03:16:42.130Z,16.48
2016-07-31T03:17:42.152Z,16.39
2016-07-31T03:18:42.180Z,16.41
2016-07-31T03:19:42.204Z,16.43
2016-07-31T03:20:57.150Z,16.49
2016-07-31T03:21:42.261Z,16.53
2016-07-31T03:22:42.279Z,16.56
2016-07-31T03:23:42.303Z,16.49
2016-07-31T03:24:42.328Z,16.53
2016-07-31T03:25:42.359Z,16.66
2016-07-31T03:26:42.383Z,16.66
2016-07-31T03:27:42.423Z,16.7
2016-07-31T03:28:42.431Z,16.78
2016-07-31T03:29:42.456Z,16.73
2016-07-31T03:30:42.485Z,16.82
2016-07-31T03:31:42.508Z,16.81
2016-07-31T03:32:42.537Z,16.78
2016-07-31T03:33:42.571Z,16.7
2016-07-31T03:34:42.592Z,16.66
2016-07-31T03:35:57.540Z,16.7
2016-07-31T03:36:57.564Z,16.81
2016-07-31T03:37:42.671Z,16.76
2016-07-31T03:38:42.693Z,16.82
2016-07-31T03:39:42.729Z,16.76
2016-07-31T03:40:42.745Z,16.7
2016-07-31T03:41:42.774Z,16.73
2016-07-31T03:42:42.792Z,16.75
2016-07-31T03:43:43.651Z,16.76
2016-07-31T03:44:42.851Z,16.83
2016-07-31T03:45:42.870Z,16.86
2016-07-31T03:47:42.927Z,16.79
2016-07-31T03:48:42.953Z,16.82
2016-07-31T03:49:42.988Z,16.81
2016-07-31T03:50:43.006Z,16.79
2016-07-31T03:51:57.956Z,16.89
2016-07-31T03:52:43.761Z,16.93
2016-07-31T03:53:43.084Z,16.91
2016-07-31T03:54:43.111Z,16.93
2016-07-31T03:55:43.139Z,17.03
2016-07-31T03:56:43.223Z,17.01
2016-07-31T03:57:43.187Z,17.07
2016-07-31T03:58:43.225Z,17.06
2016-07-31T03:59:43.242Z,17.11
2016-07-31T04:00:58.200Z,17.14
2016-07-31T04:01:43.297Z,17.19
2016-07-31T04:02:43.317Z,17.21
2016-07-31T04:03:43.346Z,17.23
2016-07-31T04:04:43.374Z,17.23
2016-07-31T04:05:43.403Z,17.28
2016-07-31T04:06:43.429Z,17.34
2016-07-31T04:07:58.375Z,17.25
2016-07-31T04:08:43.477Z,17.3
2016-07-31T04:09:43.505Z,17.38
2016-07-31T04:10:43.537Z,17.38
2016-07-31T04:11:43.551Z,17.51
2016-07-31T04:12:43.586Z,17.51
2016-07-31T04:13:44.437Z,17.48
2016-07-31T04:14:43.652Z,17.56
2016-07-31T04:15:43.665Z,17.66
2016-07-31T04:16:43.692Z,17.71
2016-07-31T04:17:43.716Z,17.7
2016-07-31T04:18:43.740Z,17.75
2016-07-31T04:19:43.769Z,17.82
2016-07-31T04:20:43.791Z,17.78
2016-07-31T04:21:58.742Z,17.82
2016-07-31T04:22:43.845Z,17.95
2016-07-31T04:23:58.792Z,18.05
2016-07-31T04:24:58.820Z,18.11
2016-07-31T04:25:43.922Z,18.14
2016-07-31T04:26:43.949Z,18.27
2016-07-31T04:27:43.975Z,18.32
2016-07-31T04:29:44.026Z,18.2
2016-07-31T04:30:44.056Z,18.21
2016-07-31T04:31:44.084Z,18.17
2016-07-31T04:32:44.111Z,18.2
2016-07-31T04:33:44.130Z,18.15
2016-07-31T04:34:44.157Z,18.18
2016-07-31T04:35:44.185Z,18.21
2016-07-31T04:36:44.207Z,18.17
2016-07-31T04:37:44.236Z,18.23
2016-07-31T04:38:59.190Z,18.21
2016-07-31T04:39:59.214Z,18.26
2016-07-31T04:40:44.323Z,18.23
2016-07-31T04:41:44.352Z,18.27
2016-07-31T04:42:44.376Z,18.26
2016-07-31T04:43:44.399Z,18.36
2016-07-31T04:44:44.433Z,18.45
2016-07-31T04:45:45.147Z,18.47
2016-07-31T04:46:44.482Z,18.54
2016-07-31T04:47:44.519Z,18.57
2016-07-31T04:48:44.543Z,18.67
2016-07-31T04:49:44.563Z,18.73
2016-07-31T04:50:44.590Z,18.76
2016-07-31T04:51:44.607Z,18.8
2016-07-31T04:52:44.632Z,18.9
2016-07-31T04:53:44.662Z,18.94
2016-07-31T04:54:44.689Z,19.1
2016-07-31T04:55:44.719Z,19.26
2016-07-31T04:56:44.744Z,19.69
2016-07-31T04:57:44.775Z,20.29
2016-07-31T04:58:44.795Z,21.04
2016-07-31T04:59:44.819Z,21.69
2016-07-31T05:00:44.897Z,22.14
2016-07-31T05:01:44.926Z,22.72
2016-07-31T05:02:44.910Z,22.95
2016-07-31T05:03:44.933Z,23.02
2016-07-31T05:04:44.958Z,23.43
2016-07-31T05:05:44.999Z,24.13
2016-07-31T05:06:45.022Z,24.67
2016-07-31T05:07:45.052Z,24.68
2016-07-31T05:09:45.112Z,24.2
2016-07-31T05:11:00.070Z,23.65
2016-07-31T05:12:45.203Z,23.04
2016-07-31T05:13:45.281Z,22.94
2016-07-31T05:14:45.262Z,22.8
2016-07-31T05:15:45.295Z,22.58
2016-07-31T05:16:45.327Z,22.37
2016-07-31T05:17:45.367Z,22.3
2016-07-31T05:18:45.383Z,22.47
2016-07-31T05:20:45.443Z,22.64
2016-07-31T05:21:45.465Z,22.49
2016-07-31T05:22:45.504Z,22.35
2016-07-31T05:23:45.535Z,22.24
2016-07-31T05:24:45.559Z,22.24
2016-07-31T05:25:45.585Z,22.73
2016-07-31T05:27:00.542Z,23.01
2016-07-31T05:28:00.571Z,23.28
2016-07-31T05:28:45.678Z,23.31
2016-07-31T05:29:45.714Z,23.27
2016-07-31T05:30:45.738Z,23.47
2016-07-31T05:31:45.768Z,23.55
2016-07-31T05:32:45.794Z,24.08
2016-07-31T05:33:45.828Z,24.15
2016-07-31T05:34:45.866Z,24.58
2016-07-31T05:35:45.891Z,25.36
2016-07-31T05:36:45.924Z,25.55
2016-07-31T05:37:45.957Z,25.51
2016-07-31T05:38:45.987Z,26.29
2016-07-31T05:39:46.020Z,27.02
2016-07-31T05:40:46.053Z,27.27
2016-07-31T05:43:01.041Z,27.55
2016-07-31T05:43:46.152Z,27.69
2016-07-31T05:44:46.180Z,28.12
2016-07-31T05:45:46.212Z,28.74
2016-07-31T05:46:46.250Z,29.27
2016-07-31T05:47:46.278Z,29.37
2016-07-31T05:48:46.320Z,29.55
2016-07-31T05:49:46.349Z,29.06
2016-07-31T05:50:46.379Z,28.48
2016-07-31T05:51:46.416Z,28.09
2016-07-31T05:52:46.448Z,28.09
2016-07-31T05:53:46.482Z,28.34
2016-07-31T05:55:01.442Z,28.64
2016-07-31T05:55:46.547Z,28.62
2016-07-31T05:57:01.509Z,28.15
2016-07-31T05:57:46.620Z,28.31
2016-07-31T05:59:01.574Z,28.89
2016-07-31T05:59:46.675Z,29.04
2016-07-31T06:00:46.719Z,29.23
2016-07-31T06:01:46.751Z,28.58
2016-07-31T06:02:46.786Z,28.3
2016-07-31T06:03:46.816Z,28.25
2016-07-31T06:04:46.903Z,28.14
2016-07-31T06:05:46.883Z,27.85
2016-07-31T06:06:46.919Z,28.09
2016-07-31T06:07:46.965Z,28.92
2016-07-31T06:08:46.992Z,29.86
2016-07-31T06:09:47.022Z,30.6
2016-07-31T06:10:47.757Z,30.89
2016-07-31T06:11:47.087Z,30.26
2016-07-31T06:12:47.123Z,29.11
2016-07-31T06:14:02.079Z,27.79
2016-07-31T06:15:02.116Z,26.88
2016-07-31T06:15:47.226Z,26.48
2016-07-31T06:16:47.315Z,26.52
2016-07-31T06:17:47.288Z,26.69
2016-07-31T06:18:47.326Z,26.77
2016-07-31T06:19:47.358Z,26.94
2016-07-31T06:20:47.388Z,27.65
2016-07-31T06:22:47.458Z,27.82
2016-07-31T06:24:02.419Z,27.96
2016-07-31T06:24:47.519Z,28.09
2016-07-31T06:25:47.557Z,27.67
2016-07-31T06:26:47.585Z,27.06
2016-07-31T06:27:47.624Z,26.89
2016-07-31T06:28:47.655Z,26.7
2016-07-31T06:29:47.691Z,26.58
2016-07-31T06:30:48.424Z,26.48
2016-07-31T06:32:47.783Z,26.45
2016-07-31T06:33:47.822Z,26.44
2016-07-31T06:34:47.849Z,26.4
2016-07-31T06:35:47.885Z,26.67
2016-07-31T06:37:02.848Z,26.82
2016-07-31T06:37:47.946Z,26.94
2016-07-31T06:38:47.981Z,26.97
2016-07-31T06:39:48.012Z,26.95
2016-07-31T06:40:48.042Z,26.95
2016-07-31T06:41:48.088Z,26.77
2016-07-31T06:43:48.150Z,26.43
2016-07-31T06:45:03.099Z,26.07
2016-07-31T06:46:03.127Z,26.3
2016-07-31T06:46:48.244Z,26.4
2016-07-31T06:48:03.190Z,26.51
2016-07-31T06:48:48.296Z,26.7
2016-07-31T06:49:48.332Z,26.89
2016-07-31T06:50:48.358Z,26.95
2016-07-31T06:51:48.396Z,26.67
2016-07-31T06:52:48.434Z,26.5
2016-07-31T06:53:48.457Z,26.66
2016-07-31T06:54:48.489Z,27.09
2016-07-31T06:55:48.528Z,27.77
2016-07-31T06:56:48.557Z,27.74
2016-07-31T06:57:48.590Z,27.84
2016-07-31T06:58:48.626Z,27.97
2016-07-31T07:00:48.687Z,29.31
2016-07-31T07:02:03.644Z,29.63
2016-07-31T07:02:48.751Z,29.87
2016-07-31T07:03:48.782Z,30.11
2016-07-31T07:04:48.821Z,29.92
2016-07-31T07:05:48.847Z,30.04
2016-07-31T07:06:48.932Z,29.83
2016-07-31T07:07:48.966Z,29.51
2016-07-31T07:08:48.946Z,29.21
2016-07-31T07:09:48.989Z,29.33
2016-07-31T07:10:49.018Z,29.9
2016-07-31T07:11:49.042Z,30
2016-07-31T07:12:49.096Z,29.64
2016-07-31T07:13:49.118Z,29.92
2016-07-31T07:14:49.251Z,29.57
2016-07-31T07:15:49.185Z,29.46
2016-07-31T07:16:49.219Z,30.01
2016-07-31T07:18:04.173Z,30.73
2016-07-31T07:18:49.293Z,31.26
2016-07-31T07:20:49.353Z,31.57
2016-07-31T07:21:49.385Z,32.19
2016-07-31T07:22:49.420Z,32.13
2016-07-31T07:23:49.451Z,32.5
2016-07-31T07:24:49.489Z,33.01
2016-07-31T07:25:49.521Z,32.35
2016-07-31T07:26:49.554Z,31.96
2016-07-31T07:27:49.585Z,31.57
2016-07-31T07:28:49.627Z,30.94
2016-07-31T07:29:49.660Z,30.6
2016-07-31T07:31:04.643Z,31.09
2016-07-31T07:31:49.731Z,31.21
2016-07-31T07:32:49.762Z,31.14
2016-07-31T07:34:04.720Z,31.36
2016-07-31T07:34:49.834Z,31.31
2016-07-31T07:35:49.867Z,31.73
2016-07-31T07:37:04.826Z,32.08
2016-07-31T07:37:49.939Z,32.28
2016-07-31T07:38:49.971Z,32.56
2016-07-31T07:39:50.003Z,33.15
2016-07-31T07:40:50.042Z,33.31
2016-07-31T07:41:50.079Z,33.61
2016-07-31T07:42:50.112Z,33.72
2016-07-31T07:43:50.147Z,33.86
2016-07-31T07:44:50.181Z,33.91
2016-07-31T07:45:50.216Z,33.88
2016-07-31T07:46:50.255Z,34.12
2016-07-31T07:49:05.252Z,33.37
2016-07-31T07:50:50.397Z,33.56
2016-07-31T07:51:50.429Z,33.35
2016-07-31T07:52:50.468Z,32.84
2016-07-31T07:53:50.503Z,33.01
2016-07-31T07:54:50.549Z,32.65
2016-07-31T07:55:50.573Z,32.52
2016-07-31T07:56:50.609Z,32.75
2016-07-31T07:57:50.641Z,32.47
2016-07-31T07:58:50.684Z,32.41
2016-07-31T07:59:50.714Z,31.91
2016-07-31T08:00:50.752Z,31.21
2016-07-31T08:02:05.714Z,31.21
2016-07-31T08:02:50.822Z,31.07
2016-07-31T08:03:50.854Z,31.26
2016-07-31T08:04:50.894Z,31.38
2016-07-31T08:05:50.925Z,31.14
2016-07-31T08:06:50.960Z,31.09
2016-07-31T08:07:51.285Z,31.06
2016-07-31T08:08:51.076Z,30.65
2016-07-31T08:09:51.068Z,30.77
2016-07-31T08:10:51.092Z,30.46
2016-07-31T08:11:51.130Z,30.51
2016-07-31T08:12:51.176Z,30.49
2016-07-31T08:13:51.189Z,30.39
2016-07-31T08:14:51.227Z,30.23
2016-07-31T08:15:51.267Z,30.16
2016-07-31T08:16:51.297Z,30.01
2016-07-31T08:17:51.338Z,30.11
2016-07-31T08:18:51.365Z,30.13
2016-07-31T08:19:52.144Z,30.2
2016-07-31T08:21:06.357Z,30.11
2016-07-31T08:21:51.471Z,29.83
2016-07-31T08:22:51.501Z,29.55
2016-07-31T08:23:51.544Z,29.49
2016-07-31T08:24:51.570Z,29.74
2016-07-31T08:25:51.602Z,29.89
2016-07-31T08:26:51.632Z,30.05
2016-07-31T08:28:51.694Z,30.73
2016-07-31T08:29:51.734Z,30.75
2016-07-31T08:31:51.802Z,30.89
2016-07-31T08:32:51.832Z,31.04
2016-07-31T08:33:51.865Z,31.04
2016-07-31T08:35:51.940Z,31.32
2016-07-31T08:37:06.894Z,31.25
2016-07-31T08:37:51.998Z,31.36
2016-07-31T08:38:52.032Z,31.31
2016-07-31T08:39:52.072Z,31.1
2016-07-31T08:40:52.101Z,30.7
2016-07-31T08:41:52.135Z,30.72
2016-07-31T08:42:52.171Z,30.83
2016-07-31T08:43:52.207Z,30.8
2016-07-31T08:45:52.269Z,30.95
2016-07-31T08:46:52.308Z,31.07
2016-07-31T08:47:52.331Z,31.07
2016-07-31T08:48:52.366Z,31.07
2016-07-31T08:49:52.402Z,31.34
2016-07-31T08:51:52.470Z,31.19
2016-07-31T08:53:07.428Z,31.01
2016-07-31T08:53:52.529Z,31.17
2016-07-31T08:54:52.571Z,30.94
2016-07-31T08:55:52.610Z,30.69
2016-07-31T08:56:52.635Z,30.57
2016-07-31T08:57:52.671Z,30.77
2016-07-31T08:58:52.702Z,30.45
2016-07-31T09:00:52.772Z,30.91
2016-07-31T09:01:52.798Z,30.94
2016-07-31T09:02:52.835Z,30.73
2016-07-31T09:03:52.870Z,30.95
2016-07-31T09:04:53.603Z,31.28
2016-07-31T09:05:52.937Z,31.39
2016-07-31T09:06:52.970Z,31.93
2016-07-31T09:07:53.009Z,32.69
2016-07-31T09:09:07.964Z,33.22
2016-07-31T09:10:53.103Z,33.98
2016-07-31T09:11:53.140Z,34.53
2016-07-31T09:12:53.172Z,34.78
2016-07-31T09:13:53.205Z,35
2016-07-31T09:15:53.270Z,35.33
2016-07-31T09:16:53.308Z,34.96
2016-07-31T09:17:53.337Z,34.89
2016-07-31T09:18:53.375Z,34.78
2016-07-31T09:19:53.456Z,34.43
2016-07-31T09:20:53.503Z,34.59
2016-07-31T09:21:53.484Z,34.25
2016-07-31T09:22:53.514Z,33.97
2016-07-31T09:24:08.472Z,33.79
2016-07-31T09:25:08.506Z,33.57
2016-07-31T09:25:53.613Z,33.42
2016-07-31T09:26:53.652Z,33.44
2016-07-31T09:27:53.687Z,32.97
2016-07-31T09:28:53.720Z,33.15
2016-07-31T09:30:53.785Z,32.11
2016-07-31T09:31:53.820Z,31.88
2016-07-31T09:32:53.853Z,31.91
2016-07-31T09:33:53.884Z,31.91
2016-07-31T09:34:53.923Z,32.08
2016-07-31T09:35:53.948Z,32.14
2016-07-31T09:36:53.988Z,31.92
2016-07-31T09:37:54.027Z,31.66
2016-07-31T09:38:54.061Z,31.58
2016-07-31T09:40:09.015Z,31.51
2016-07-31T09:40:54.121Z,31.58
2016-07-31T09:41:54.166Z,31.5
2016-07-31T09:42:54.182Z,31.65
2016-07-31T09:43:54.227Z,32.06
2016-07-31T09:44:54.256Z,32.08
2016-07-31T09:45:54.284Z,31.62
2016-07-31T09:46:54.324Z,31.66
2016-07-31T09:47:54.360Z,31.34
2016-07-31T09:48:54.387Z,31.01
2016-07-31T09:49:54.427Z,30.77
2016-07-31T09:50:54.460Z,30.8
2016-07-31T09:51:54.488Z,31.04
2016-07-31T09:52:54.520Z,31.38
2016-07-31T09:54:54.586Z,31.51
2016-07-31T09:56:09.550Z,31.78
2016-07-31T09:57:09.584Z,31.66
2016-07-31T09:57:54.694Z,31.63
2016-07-31T09:58:54.729Z,31.76
2016-07-31T09:59:54.757Z,31.72
2016-07-31T10:00:54.796Z,31.57
2016-07-31T10:01:54.826Z,31.72
2016-07-31T10:02:54.858Z,31.39
2016-07-31T10:03:54.900Z,31.44
2016-07-31T10:04:54.926Z,31.7
2016-07-31T10:05:54.960Z,31.69
2016-07-31T10:06:54.988Z,31.65
2016-07-31T10:07:55.030Z,31.95
2016-07-31T10:08:55.064Z,31.81
2016-07-31T10:09:55.095Z,31.62
2016-07-31T10:12:10.180Z,31.57
2016-07-31T10:13:10.113Z,31.53
2016-07-31T10:13:55.220Z,31.73
2016-07-31T10:14:55.262Z,31.58
2016-07-31T10:15:55.286Z,31.62
2016-07-31T10:16:55.322Z,31.61
2016-07-31T10:17:55.355Z,31.76
2016-07-31T10:18:56.078Z,31.93
2016-07-31T10:19:55.426Z,31.88
2016-07-31T10:20:55.456Z,31.8
2016-07-31T10:21:55.485Z,31.62
2016-07-31T10:22:55.516Z,31.44
2016-07-31T10:23:55.559Z,31.32
2016-07-31T10:24:55.579Z,30.92
2016-07-31T10:26:55.660Z,30.79
2016-07-31T10:28:10.613Z,30.34
2016-07-31T10:28:55.711Z,30.38
2016-07-31T10:29:55.755Z,30.45
2016-07-31T10:31:55.825Z,30.55
2016-07-31T10:32:55.858Z,30.62
2016-07-31T10:34:10.816Z,30.67
2016-07-31T10:34:55.917Z,30.72
2016-07-31T10:35:55.952Z,30.94
2016-07-31T10:36:55.985Z,30.95
2016-07-31T10:37:56.016Z,31.5
2016-07-31T10:38:56.045Z,31.56
2016-07-31T10:40:11.010Z,31.88
2016-07-31T10:41:11.040Z,32.15
2016-07-31T10:41:56.159Z,32.07
2016-07-31T10:43:11.105Z,32.22
2016-07-31T10:44:11.138Z,32.35
2016-07-31T10:44:56.243Z,32.51
2016-07-31T10:45:56.284Z,32.63
2016-07-31T10:46:56.314Z,32.57
2016-07-31T10:47:56.351Z,32.47
2016-07-31T10:48:56.374Z,32.13
2016-07-31T10:49:56.414Z,31.89
2016-07-31T10:50:56.444Z,31.78
2016-07-31T10:51:56.480Z,31.84
2016-07-31T10:52:57.209Z,31.51
2016-07-31T10:53:56.542Z,31.48
2016-07-31T10:54:56.579Z,31.56
2016-07-31T10:55:56.613Z,31.46
2016-07-31T10:56:56.645Z,31.1
2016-07-31T10:57:56.669Z,31.07
2016-07-31T10:59:11.649Z,30.89
2016-07-31T10:59:56.743Z,30.77
2016-07-31T11:00:56.773Z,30.23
2016-07-31T11:01:56.814Z,29.8
2016-07-31T11:02:56.843Z,29.82
2016-07-31T11:03:56.878Z,29.39
2016-07-31T11:04:56.904Z,29.3
2016-07-31T11:05:56.942Z,29.73
2016-07-31T11:07:57.006Z,29.89
2016-07-31T11:08:57.034Z,29.97
2016-07-31T11:09:57.079Z,30.23
2016-07-31T11:10:57.112Z,30.31
2016-07-31T11:11:57.133Z,30.34
2016-07-31T11:12:57.172Z,30.51
2016-07-31T11:14:12.130Z,30.64
2016-07-31T11:14:57.239Z,30.89
2016-07-31T11:15:57.269Z,31.12
2016-07-31T11:16:57.305Z,31.2
2016-07-31T11:17:57.334Z,31.21
2016-07-31T11:18:57.372Z,31.32
2016-07-31T11:19:57.709Z,31.41
2016-07-31T11:20:57.431Z,31.47
2016-07-31T11:21:57.468Z,31.47
2016-07-31T11:22:57.505Z,31.76
2016-07-31T11:23:57.531Z,31.89
2016-07-31T11:24:57.563Z,31.72
2016-07-31T11:26:12.581Z,31.31
2016-07-31T11:26:57.635Z,31.2
2016-07-31T11:27:57.663Z,31.02
2016-07-31T11:28:57.698Z,30.94
2016-07-31T11:29:57.726Z,31.16
2016-07-31T11:31:12.689Z,31.36
2016-07-31T11:31:57.799Z,31.47
2016-07-31T11:32:57.831Z,31.58
2016-07-31T11:33:57.863Z,31.66
2016-07-31T11:34:57.893Z,31.88
2016-07-31T11:35:57.931Z,31.89
2016-07-31T11:36:57.957Z,32.03
2016-07-31T11:37:57.994Z,31.57
2016-07-31T11:38:58.026Z,31.34
2016-07-31T11:39:58.061Z,31.36
2016-07-31T11:40:58.092Z,31.04
2016-07-31T11:41:58.122Z,30.91
2016-07-31T11:42:58.153Z,30.91
2016-07-31T11:43:58.187Z,30.98
2016-07-31T11:45:13.151Z,31.26
2016-07-31T11:45:58.262Z,31.38
2016-07-31T11:47:13.214Z,31.2
2016-07-31T11:47:58.320Z,31.07
2016-07-31T11:48:58.360Z,31.26
2016-07-31T11:49:58.390Z,31.46
2016-07-31T11:50:58.427Z,31.34
2016-07-31T11:51:58.457Z,31.28
2016-07-31T11:52:58.485Z,31.1
2016-07-31T11:53:58.519Z,31.14
2016-07-31T11:54:58.569Z,31.32
2016-07-31T11:55:58.582Z,31.43
2016-07-31T11:56:58.618Z,31.34
2016-07-31T11:57:58.651Z,31.46
2016-07-31T11:59:13.609Z,31.61
2016-07-31T12:00:13.643Z,31.48
2016-07-31T12:00:58.743Z,31.5
2016-07-31T12:01:58.782Z,31.47
2016-07-31T12:03:13.737Z,31.29
2016-07-31T12:03:58.843Z,31.46
2016-07-31T12:04:58.878Z,31.48
2016-07-31T12:05:58.909Z,31.41
2016-07-31T12:06:59.633Z,31.46
2016-07-31T12:07:58.975Z,31.17
2016-07-31T12:08:59.010Z,31.17
2016-07-31T12:09:59.043Z,31.16
2016-07-31T12:10:59.076Z,31.25
2016-07-31T12:11:59.107Z,31.06
2016-07-31T12:12:59.142Z,31.06
2016-07-31T12:13:59.171Z,31.02
2016-07-31T12:14:59.202Z,30.82
2016-07-31T12:15:59.238Z,30.72
2016-07-31T12:16:59.271Z,30.65
2016-07-31T12:19:14.260Z,30.57
2016-07-31T12:19:59.373Z,30.69
2016-07-31T12:20:59.402Z,30.46
2016-07-31T12:21:59.433Z,29.92
2016-07-31T12:22:59.462Z,30.04
2016-07-31T12:23:59.496Z,30.16
2016-07-31T12:24:59.533Z,30
2016-07-31T12:25:59.563Z,29.86
2016-07-31T12:26:59.598Z,29.87
2016-07-31T12:27:59.626Z,29.86
2016-07-31T12:28:59.704Z,30
2016-07-31T12:29:59.741Z,30.15
2016-07-31T12:30:59.722Z,30.26
2016-07-31T12:31:59.770Z,30.08
2016-07-31T12:32:59.801Z,29.7
2016-07-31T12:34:14.745Z,30.01
2016-07-31T12:34:59.858Z,30.2
2016-07-31T12:36:00.590Z,30.65
2016-07-31T12:36:59.923Z,30.58
2016-07-31T12:37:59.951Z,30.77
2016-07-31T12:38:59.983Z,30.8
2016-07-31T12:40:00.016Z,30.88
2016-07-31T12:41:00.046Z,31.02
2016-07-31T12:42:00.135Z,31.13
2016-07-31T12:43:00.130Z,31.26
2016-07-31T12:44:00.144Z,31.5
2016-07-31T12:45:00.182Z,31.51
2016-07-31T12:46:00.211Z,31.5
2016-07-31T12:47:00.240Z,31.07
2016-07-31T12:48:00.276Z,31.09
2016-07-31T12:49:00.305Z,30.86
2016-07-31T12:50:00.339Z,30.89
2016-07-31T12:51:00.373Z,30.76
2016-07-31T12:52:00.405Z,30.92
2016-07-31T12:53:00.438Z,30.98
2016-07-31T12:54:00.465Z,30.82
2016-07-31T12:55:00.504Z,30.94
2016-07-31T12:56:00.538Z,31.19
2016-07-31T12:57:00.573Z,31.41
2016-07-31T12:58:00.600Z,31.34
2016-07-31T12:59:00.629Z,31.07
2016-07-31T13:00:00.818Z,31.2
2016-07-31T13:01:01.528Z,31.21
2016-07-31T13:02:00.732Z,31.23
2016-07-31T13:03:15.693Z,31.26
2016-07-31T13:04:00.795Z,31.35
2016-07-31T13:05:00.833Z,31.36
2016-07-31T13:06:15.796Z,31.48
2016-07-31T13:07:00.900Z,31.53
2016-07-31T13:08:00.928Z,31.34
2016-07-31T13:09:00.962Z,31.28
2016-07-31T13:10:00.993Z,31.06
2016-07-31T13:11:01.028Z,31.25
2016-07-31T13:12:01.753Z,31.19
2016-07-31T13:13:01.092Z,31.14
2016-07-31T13:14:01.120Z,31.25
2016-07-31T13:15:01.157Z,31.07
2016-07-31T13:17:01.217Z,31.09
2016-07-31T13:18:01.252Z,31.2
2016-07-31T13:19:01.299Z,31.23
2016-07-31T13:20:16.245Z,31.26
2016-07-31T13:21:01.344Z,31.34
2016-07-31T13:22:16.310Z,31.2
2016-07-31T13:23:01.412Z,31.29
2016-07-31T13:24:01.445Z,31.38
2016-07-31T13:25:01.478Z,31.47
2016-07-31T13:26:01.511Z,31.61
2016-07-31T13:27:01.547Z,31.5
2016-07-31T13:28:01.579Z,31.51
2016-07-31T13:29:01.609Z,31.7
2016-07-31T13:30:01.701Z,31.43
2016-07-31T13:33:01.800Z,31.29
2016-07-31T13:34:01.769Z,31.29
2016-07-31T13:35:01.809Z,31.38
2016-07-31T13:36:01.849Z,31.32
2016-07-31T13:37:01.868Z,31.21
2016-07-31T13:38:16.823Z,31.25
2016-07-31T13:39:01.938Z,31.26